Time,TemperatureF,DewpointF,PressureIn,WindDirection,WindDirectionDegrees,WindSpeedMPH,WindSpeedGustMPH,Humidity,HourlyPrecipIn,Conditions,Clouds,dailyrainin,SoftwareType,DateUTC
2013-08-02 00:02:00,59.5,48.6,29.91,WNW,298,0.0,0.0,67,0.00,,---,0.00,VWS V14.01,2013-08-02 05:02:00,
2013-08-02 00:07:00,59.5,48.6,29.91,WNW,298,0.0,0.0,67,0.00,,---,0.00,VWS V14.01,2013-08-02 05:07:00,
2013-08-02 00:13:00,59.4,48.4,29.91,WNW,298,0.0,0.0,67,0.00,,---,0.00,VWS V14.01,2013-08-02 05:13:00,
2013-08-02 00:18:00,59.4,48.4,29.91,WNW,298,0.0,0.0,67,0.00,,---,0.00,VWS V14.01,2013-08-02 05:18:00,
2013-08-02 00:23:00,59.2,48.2,29.91,WNW,298,0.0,0.0,67,0.00,,---,0.00,VWS V14.01,2013-08-02 05:23:00,
2013-08-02 00:29:00,59.2,48.2,29.91,WNW,298,0.0,0.0,67,0.00,,---,0.00,VWS V14.01,2013-08-02 05:29:00,
2013-08-02 00:34:00,59.0,48.5,29.91,WNW,298,0.0,0.0,68,0.00,,---,0.00,VWS V14.01,2013-08-02 05:34:00,
2013-08-02 00:40:00,59.5,49.8,29.88,WNW,298,0.0,0.0,70,0.00,,---,0.00,VWS V14.01,2013-08-02 05:40:00,
2013-08-02 00:45:00,59.0,48.9,29.88,WNW,298,0.0,0.0,69,0.00,,---,0.00,VWS V14.01,2013-08-02 05:45:00,
2013-08-02 00:51:00,58.6,48.9,29.88,WNW,298,0.0,0.0,70,0.00,,---,0.00,VWS V14.01,2013-08-02 05:51:00,
2013-08-02 00:56:00,58.5,48.7,29.88,WNW,298,0.0,0.0,70,0.00,,---,0.00,VWS V14.01,2013-08-02 05:56:00,
2013-08-02 01:01:00,58.1,48.4,29.88,WNW,298,0.0,0.0,70,0.00,,---,0.00,VWS V14.01,2013-08-02 06:01:00,
2013-08-02 01:06:00,57.9,48.2,29.88,WNW,298,0.0,0.0,70,0.00,,---,0.00,VWS V14.01,2013-08-02 06:06:00,
2013-08-02 01:12:00,57.7,48.4,29.88,WNW,298,0.0,0.0,71,0.00,,---,0.00,VWS V14.01,2013-08-02 06:12:00,
2013-08-02 01:18:00,57.7,48.4,29.88,WNW,298,0.0,0.0,71,0.00,,---,0.00,VWS V14.01,2013-08-02 06:18:00,
2013-08-02 01:23:00,57.7,48.4,29.88,WNW,298,0.0,0.0,71,0.00,,---,0.00,VWS V14.01,2013-08-02 06:23:00,
2013-08-02 01:28:00,57.9,49.0,29.88,WNW,298,0.0,0.0,72,0.00,,---,0.00,VWS V14.01,2013-08-02 06:28:00,
2013-08-02 01:33:00,58.1,49.1,29.88,WNW,298,0.0,0.0,72,0.00,,---,0.00,VWS V14.01,2013-08-02 06:33:00,
2013-08-02 01:39:00,58.1,49.1,29.88,WNW,298,0.0,0.0,72,0.00,,---,0.00,VWS V14.01,2013-08-02 06:39:00,
2013-08-02 01:45:00,58.1,49.1,29.88,WNW,298,0.0,0.0,72,0.00,,---,0.00,VWS V14.01,2013-08-02 06:45:00,
2013-08-02 01:51:00,57.9,49.0,29.88,WNW,298,0.0,0.0,72,0.00,,---,0.00,VWS V14.01,2013-08-02 06:51:00,
2013-08-02 01:56:00,57.7,48.8,29.88,WNW,298,0.0,0.0,72,0.00,,---,0.00,VWS V14.01,2013-08-02 06:56:00,
2013-08-02 02:02:00,57.6,48.6,29.88,WNW,298,0.0,0.0,72,0.00,,---,0.00,VWS V14.01,2013-08-02 07:02:00,
2013-08-02 02:07:00,57.6,48.6,29.88,WNW,298,0.0,0.0,72,0.00,,---,0.00,VWS V14.01,2013-08-02 07:07:00,
2013-08-02 02:12:00,57.6,48.6,29.88,WNW,298,0.0,0.0,72,0.00,,---,0.00,VWS V14.01,2013-08-02 07:12:00,
2013-08-02 02:18:00,57.6,48.6,29.88,WNW,298,0.0,0.0,72,0.00,,---,0.00,VWS V14.01,2013-08-02 07:18:00,
2013-08-02 02:24:00,57.6,48.6,29.91,WNW,298,0.0,0.0,72,0.00,,---,0.00,VWS V14.01,2013-08-02 07:24:00,
2013-08-02 02:29:00,57.6,48.6,29.91,WNW,298,0.0,0.0,72,0.00,,---,0.00,VWS V14.01,2013-08-02 07:29:00,
2013-08-02 02:35:00,57.7,48.8,29.91,WNW,298,0.0,0.0,72,0.00,,---,0.00,VWS V14.01,2013-08-02 07:35:00,
2013-08-02 02:41:00,57.4,48.1,29.91,WNW,298,0.0,0.0,71,0.00,,---,0.00,VWS V14.01,2013-08-02 07:41:00,
2013-08-02 02:46:00,57.2,47.9,29.91,WNW,298,0.0,0.0,71,0.00,,---,0.00,VWS V14.01,2013-08-02 07:46:00,
2013-08-02 02:52:00,56.8,47.9,29.91,WNW,298,0.0,0.0,72,0.00,,---,0.00,VWS V14.01,2013-08-02 07:52:00,
2013-08-02 02:57:00,56.7,47.8,29.91,WNW,298,0.0,0.0,72,0.00,,---,0.00,VWS V14.01,2013-08-02 07:57:00,
2013-08-02 03:03:00,56.7,47.8,29.91,WNW,298,0.0,0.0,72,0.00,,---,0.00,VWS V14.01,2013-08-02 08:03:00,
2013-08-02 03:08:00,56.3,47.4,29.91,WNW,298,0.0,0.0,72,0.00,,---,0.00,VWS V14.01,2013-08-02 08:08:00,
2013-08-02 03:14:00,55.9,47.1,29.91,WNW,298,0.0,0.0,72,0.00,,---,0.00,VWS V14.01,2013-08-02 08:14:00,
2013-08-02 03:19:00,55.6,46.7,29.91,WNW,298,0.0,0.0,72,0.00,,---,0.00,VWS V14.01,2013-08-02 08:19:00,
2013-08-02 03:25:00,55.0,46.2,29.91,WNW,298,0.0,0.0,72,0.00,,---,0.00,VWS V14.01,2013-08-02 08:25:00,
2013-08-02 03:30:00,54.5,46.0,29.91,WNW,298,0.0,0.0,73,0.00,,---,0.00,VWS V14.01,2013-08-02 08:30:00,
2013-08-02 03:35:00,54.7,46.2,29.91,WNW,298,0.0,0.0,73,0.00,,---,0.00,VWS V14.01,2013-08-02 08:35:00,
2013-08-02 03:40:00,54.9,46.7,29.91,WNW,298,0.0,0.0,74,0.00,,---,0.00,VWS V14.01,2013-08-02 08:40:00,
2013-08-02 03:45:00,54.9,46.7,29.91,WNW,298,0.0,0.0,74,0.00,,---,0.00,VWS V14.01,2013-08-02 08:45:00,
2013-08-02 03:51:00,55.2,47.1,29.91,WNW,298,0.0,0.0,74,0.00,,---,0.00,VWS V14.01,2013-08-02 08:51:00,
2013-08-02 03:56:00,54.9,46.7,29.91,WNW,298,0.0,0.0,74,0.00,,---,0.00,VWS V14.01,2013-08-02 08:56:00,
2013-08-02 04:01:00,54.3,46.2,29.91,WNW,298,0.0,0.0,74,0.00,,---,0.00,VWS V14.01,2013-08-02 09:01:00,
2013-08-02 04:06:00,54.1,46.0,29.91,WNW,298,0.0,0.0,74,0.00,,---,0.00,VWS V14.01,2013-08-02 09:06:00,
2013-08-02 04:12:00,54.3,46.6,29.91,WNW,298,0.0,0.0,75,0.00,,---,0.00,VWS V14.01,2013-08-02 09:12:00,
2013-08-02 04:17:00,54.3,46.6,29.91,WNW,298,0.0,0.0,75,0.00,,---,0.00,VWS V14.01,2013-08-02 09:17:00,
2013-08-02 04:23:00,54.3,46.6,29.91,WNW,298,0.0,0.0,75,0.00,,---,0.00,VWS V14.01,2013-08-02 09:23:00,
2013-08-02 04:28:00,54.5,46.8,29.91,WNW,298,0.0,0.0,75,0.00,,---,0.00,VWS V14.01,2013-08-02 09:28:00,
2013-08-02 04:34:00,53.8,46.0,29.91,WNW,298,0.0,0.0,75,0.00,,---,0.00,VWS V14.01,2013-08-02 09:34:00,
2013-08-02 04:40:00,53.6,45.9,29.91,WNW,298,0.0,0.0,75,0.00,,---,0.00,VWS V14.01,2013-08-02 09:40:00,
2013-08-02 04:45:00,53.1,45.4,29.91,WNW,298,0.0,0.0,75,0.00,,---,0.00,VWS V14.01,2013-08-02 09:45:00,
2013-08-02 04:50:00,52.7,45.4,29.91,WNW,298,0.0,0.0,76,0.00,,---,0.00,VWS V14.01,2013-08-02 09:50:00,
2013-08-02 04:57:00,52.3,45.0,29.91,WNW,298,0.0,0.0,76,0.00,,---,0.00,VWS V14.01,2013-08-02 09:57:00,
2013-08-02 05:02:00,52.2,45.2,29.91,WNW,298,0.0,0.0,77,0.00,,---,0.00,VWS V14.01,2013-08-02 10:02:00,
2013-08-02 05:08:00,52.2,45.2,29.91,WNW,298,0.0,0.0,77,0.00,,---,0.00,VWS V14.01,2013-08-02 10:08:00,
2013-08-02 05:13:00,52.2,45.5,29.91,WNW,298,0.0,0.0,78,0.00,,---,0.00,VWS V14.01,2013-08-02 10:13:00,
2013-08-02 05:18:00,52.2,45.5,29.91,WNW,298,0.0,0.0,78,0.00,,---,0.00,VWS V14.01,2013-08-02 10:18:00,
2013-08-02 05:24:00,52.0,45.3,29.91,WNW,298,0.0,0.0,78,0.00,,---,0.00,VWS V14.01,2013-08-02 10:24:00,
2013-08-02 05:29:00,51.8,45.2,29.91,WNW,298,0.0,0.0,78,0.00,,---,0.00,VWS V14.01,2013-08-02 10:29:00,
2013-08-02 05:35:00,51.4,45.2,29.91,WNW,298,0.0,0.0,79,0.00,,---,0.00,VWS V14.01,2013-08-02 10:35:00,
2013-08-02 05:40:00,51.3,45.0,29.91,WNW,298,0.0,0.0,79,0.00,,---,0.00,VWS V14.01,2013-08-02 10:40:00,
2013-08-02 05:46:00,50.9,45.0,29.91,WNW,298,0.0,0.0,80,0.00,,---,0.00,VWS V14.01,2013-08-02 10:46:00,
2013-08-02 05:52:00,50.9,45.0,29.91,WNW,298,2.7,2.7,80,0.00,,---,0.00,VWS V14.01,2013-08-02 10:52:00,
2013-08-02 05:57:00,51.1,45.5,29.94,WNW,298,0.0,0.0,81,0.00,,---,0.00,VWS V14.01,2013-08-02 10:57:00,
2013-08-02 06:03:00,51.1,45.5,29.94,WNW,298,0.0,0.0,81,0.00,,---,0.00,VWS V14.01,2013-08-02 11:03:00,
2013-08-02 06:08:00,51.3,45.6,29.94,WNW,298,0.0,0.0,81,0.00,,---,0.00,VWS V14.01,2013-08-02 11:08:00,
2013-08-02 06:14:00,51.3,45.6,29.94,WNW,298,0.0,0.0,81,0.00,,---,0.00,VWS V14.01,2013-08-02 11:14:00,
2013-08-02 06:19:00,51.6,46.3,29.94,WNW,298,0.0,0.0,82,0.00,,---,0.00,VWS V14.01,2013-08-02 11:19:00,
2013-08-02 06:25:00,52.2,46.8,29.94,WNW,298,0.0,0.0,82,0.00,,---,0.00,VWS V14.01,2013-08-02 11:25:00,
2013-08-02 06:31:00,52.5,47.2,29.94,WNW,301,3.1,3.1,82,0.00,,---,0.00,VWS V14.01,2013-08-02 11:31:00,
2013-08-02 06:37:00,53.1,48.0,29.94,WNW,302,2.7,2.7,83,0.00,,---,0.00,VWS V14.01,2013-08-02 11:37:00,
2013-08-02 06:42:00,54.1,49.1,29.94,North,0,2.2,2.2,83,0.00,,---,0.00,VWS V14.01,2013-08-02 11:42:00,
2013-08-02 06:47:00,55.0,50.0,29.94,North,0,3.1,3.1,83,0.00,,---,0.00,VWS V14.01,2013-08-02 11:47:00,
2013-08-02 06:52:00,55.8,50.7,29.94,North,0,3.1,3.1,83,0.00,,---,0.00,VWS V14.01,2013-08-02 11:52:00,
2013-08-02 06:57:00,57.2,52.1,29.94,West,264,2.7,2.7,83,0.00,,---,0.00,VWS V14.01,2013-08-02 11:57:00,
2013-08-02 07:03:00,57.0,50.2,29.94,WSW,244,0.0,0.0,78,0.00,,---,0.00,VWS V14.01,2013-08-02 12:03:00,
2013-08-02 07:09:00,56.7,49.5,29.94,WSW,244,0.0,0.0,77,0.00,,---,0.00,VWS V14.01,2013-08-02 12:09:00,
2013-08-02 07:15:00,56.7,49.9,29.94,WSW,243,0.0,0.0,78,0.00,,---,0.00,VWS V14.01,2013-08-02 12:15:00,
2013-08-02 07:20:00,57.0,50.2,29.94,WSW,244,0.0,0.0,78,0.00,,---,0.00,VWS V14.01,2013-08-02 12:20:00,
2013-08-02 07:25:00,57.2,50.1,29.94,WSW,244,0.0,0.0,77,0.00,,---,0.00,VWS V14.01,2013-08-02 12:25:00,
2013-08-02 07:30:00,57.6,50.4,29.94,WSW,244,0.0,0.0,77,0.00,,---,0.00,VWS V14.01,2013-08-02 12:30:00,
2013-08-02 07:35:00,58.1,50.9,29.94,WSW,244,0.0,0.0,77,0.00,,---,0.00,VWS V14.01,2013-08-02 12:35:00,
2013-08-02 07:41:00,58.8,51.6,29.94,WSW,244,0.0,0.0,77,0.00,,---,0.00,VWS V14.01,2013-08-02 12:41:00,
2013-08-02 07:46:00,59.4,51.1,29.94,WSW,244,0.0,0.0,74,0.00,,---,0.00,VWS V14.01,2013-08-02 12:46:00,
2013-08-02 07:51:00,59.9,50.5,29.94,WSW,244,0.0,0.0,71,0.00,,---,0.00,VWS V14.01,2013-08-02 12:51:00,
2013-08-02 07:56:00,60.3,50.1,29.94,WSW,244,0.0,0.0,69,0.00,,---,0.00,VWS V14.01,2013-08-02 12:56:00,
2013-08-02 08:01:00,61.0,50.0,29.94,WSW,244,0.0,0.0,67,0.00,,---,0.00,VWS V14.01,2013-08-02 13:01:00,
2013-08-02 08:07:00,61.7,49.0,29.94,WSW,244,0.0,0.0,63,0.00,,---,0.00,VWS V14.01,2013-08-02 13:07:00,
2013-08-02 08:13:00,62.1,48.9,29.94,WSW,244,0.0,0.0,62,0.00,,---,0.00,VWS V14.01,2013-08-02 13:13:00,
2013-08-02 08:18:00,63.1,48.6,29.94,WSW,244,0.0,0.0,59,0.00,,---,0.00,VWS V14.01,2013-08-02 13:18:00,
2013-08-02 08:24:00,63.1,48.1,29.94,WSW,244,0.0,0.0,58,0.00,,---,0.00,VWS V14.01,2013-08-02 13:24:00,
2013-08-02 08:30:00,63.0,48.4,29.94,WSW,244,0.0,0.0,59,0.00,,---,0.00,VWS V14.01,2013-08-02 13:30:00,
2013-08-02 08:35:00,63.0,48.4,29.94,WSW,244,0.0,0.0,59,0.00,,---,0.00,VWS V14.01,2013-08-02 13:35:00,
2013-08-02 08:41:00,63.1,49.0,29.97,NNW,329,0.0,0.0,60,0.00,,---,0.00,VWS V14.01,2013-08-02 13:41:00,
2013-08-02 08:46:00,63.7,49.5,29.97,WNW,287,4.0,4.0,60,0.00,,---,0.00,VWS V14.01,2013-08-02 13:46:00,
2013-08-02 08:52:00,63.9,48.8,29.97,WNW,287,4.0,4.0,58,0.00,,---,0.00,VWS V14.01,2013-08-02 13:52:00,
2013-08-02 08:58:00,64.6,49.5,29.97,NW,323,4.0,4.0,58,0.00,,---,0.00,VWS V14.01,2013-08-02 13:58:00,
2013-08-02 09:03:00,65.1,49.0,29.97,NW,323,4.0,4.0,56,0.00,,---,0.00,VWS V14.01,2013-08-02 14:03:00,
2013-08-02 09:08:00,65.7,49.1,29.97,NW,323,4.0,4.0,55,0.00,,---,0.00,VWS V14.01,2013-08-02 14:08:00,
2013-08-02 09:14:00,66.0,49.4,29.97,WNW,287,3.1,4.0,55,0.00,,---,0.00,VWS V14.01,2013-08-02 14:14:00,
2013-08-02 09:19:00,66.4,48.8,29.97,West,279,2.7,2.7,53,0.00,,---,0.00,VWS V14.01,2013-08-02 14:19:00,
2013-08-02 09:24:00,66.9,48.2,29.97,NW,305,0.0,0.0,51,0.00,,---,0.00,VWS V14.01,2013-08-02 14:24:00,
2013-08-02 09:29:00,67.8,48.5,29.97,NW,305,0.0,0.0,50,0.00,,---,0.00,VWS V14.01,2013-08-02 14:29:00,
2013-08-02 09:34:00,68.4,48.5,29.97,NW,305,0.0,0.0,49,0.00,,---,0.00,VWS V14.01,2013-08-02 14:34:00,
2013-08-02 09:40:00,69.1,48.6,29.97,NW,305,0.0,0.0,48,0.00,,---,0.00,VWS V14.01,2013-08-02 14:40:00,
2013-08-02 09:45:00,69.4,49.5,29.97,NW,305,0.0,0.0,49,0.00,,---,0.00,VWS V14.01,2013-08-02 14:45:00,
2013-08-02 09:50:00,69.4,47.8,29.97,NW,305,0.0,0.0,46,0.00,,---,0.00,VWS V14.01,2013-08-02 14:50:00,
2013-08-02 09:55:00,69.6,48.5,29.97,NW,305,0.0,0.0,47,0.00,,---,0.00,VWS V14.01,2013-08-02 14:55:00,
2013-08-02 10:00:00,70.0,47.1,29.97,NNW,337,3.6,3.6,44,0.00,,---,0.00,VWS V14.01,2013-08-02 15:00:00,
2013-08-02 10:06:00,70.2,47.2,29.97,NNW,337,3.6,3.6,44,0.00,,---,0.00,VWS V14.01,2013-08-02 15:06:00,
2013-08-02 10:11:00,70.5,47.6,29.97,NNW,337,3.6,3.6,44,0.00,,---,0.00,VWS V14.01,2013-08-02 15:11:00,
2013-08-02 10:16:00,70.9,46.0,29.97,NNW,337,3.6,3.6,41,0.00,,---,0.00,VWS V14.01,2013-08-02 15:16:00,
2013-08-02 10:22:00,71.2,47.0,29.97,NNW,337,3.6,3.6,42,0.00,,---,0.00,VWS V14.01,2013-08-02 15:22:00,
2013-08-02 10:27:00,71.6,47.9,29.97,NNW,337,3.6,3.6,43,0.00,,---,0.00,VWS V14.01,2013-08-02 15:27:00,
2013-08-02 10:33:00,71.2,48.2,29.97,NNW,337,3.6,3.6,44,0.00,,---,0.00,VWS V14.01,2013-08-02 15:33:00,
2013-08-02 10:38:00,71.1,46.8,29.97,NNW,337,3.6,3.6,42,0.00,,---,0.00,VWS V14.01,2013-08-02 15:38:00,
2013-08-02 10:43:00,70.7,47.1,29.97,NNW,337,3.6,3.6,43,0.00,,---,0.00,VWS V14.01,2013-08-02 15:43:00,
2013-08-02 10:49:00,70.7,47.7,29.97,NNW,337,3.6,3.6,44,0.00,,---,0.00,VWS V14.01,2013-08-02 15:49:00,
2013-08-02 10:54:00,70.7,47.7,29.97,NNW,337,3.6,3.6,44,0.00,,---,0.00,VWS V14.01,2013-08-02 15:54:00,
2013-08-02 11:00:00,71.2,47.0,29.97,NNW,337,3.6,3.6,42,0.00,,---,0.00,VWS V14.01,2013-08-02 16:00:00,
2013-08-02 11:06:00,71.4,47.2,29.97,NNW,337,3.6,3.6,42,0.00,,---,0.00,VWS V14.01,2013-08-02 16:06:00,
2013-08-02 11:11:00,72.1,46.5,29.97,NNW,337,3.6,3.6,40,0.00,,---,0.00,VWS V14.01,2013-08-02 16:11:00,
2013-08-02 11:17:00,72.9,45.8,29.97,NNE,13,6.7,7.6,38,0.00,,---,0.00,VWS V14.01,2013-08-02 16:17:00,
2013-08-02 11:22:00,73.4,44.1,29.97,WNW,282,4.0,4.0,35,0.00,,---,0.00,VWS V14.01,2013-08-02 16:22:00,
2013-08-02 11:28:00,73.8,47.3,29.97,NNE,21,4.0,4.0,39,0.00,,---,0.00,VWS V14.01,2013-08-02 16:28:00,
2013-08-02 11:33:00,74.1,47.6,29.97,NNE,21,4.0,4.0,39,0.00,,---,0.00,VWS V14.01,2013-08-02 16:33:00,
2013-08-02 11:39:00,73.9,46.0,29.97,NNE,15,7.6,7.6,37,0.00,,---,0.00,VWS V14.01,2013-08-02 16:39:00,
2013-08-02 11:44:00,73.6,45.0,29.97,NNE,15,7.6,7.6,36,0.00,,---,0.00,VWS V14.01,2013-08-02 16:44:00,
2013-08-02 11:50:00,73.4,43.3,29.97,NNE,15,7.6,7.6,34,0.00,,---,0.00,VWS V14.01,2013-08-02 16:50:00,
2013-08-02 11:56:00,73.4,43.3,29.97,NNW,334,7.2,7.2,34,0.00,,---,0.00,VWS V14.01,2013-08-02 16:56:00,
2013-08-02 12:01:00,73.8,43.7,29.97,NNW,334,7.2,7.2,34,0.00,,---,0.00,VWS V14.01,2013-08-02 17:01:00,
2013-08-02 12:07:00,73.9,43.0,29.97,North,0,5.8,7.2,33,0.00,,---,0.00,VWS V14.01,2013-08-02 17:07:00,
2013-08-02 12:12:00,74.1,44.8,29.97,North,357,5.4,5.4,35,0.00,,---,0.00,VWS V14.01,2013-08-02 17:12:00,
2013-08-02 12:18:00,74.1,44.0,29.97,North,357,5.4,5.4,34,0.00,,---,0.00,VWS V14.01,2013-08-02 17:18:00,
2013-08-02 12:23:00,74.1,43.2,29.97,North,357,5.4,5.4,33,0.00,,---,0.00,VWS V14.01,2013-08-02 17:23:00,
2013-08-02 12:29:00,74.5,44.3,29.97,North,357,5.4,5.4,34,0.00,,---,0.00,VWS V14.01,2013-08-02 17:29:00,
2013-08-02 12:34:00,74.5,43.5,29.97,North,357,5.4,5.4,33,0.00,,---,0.00,VWS V14.01,2013-08-02 17:34:00,
2013-08-02 12:40:00,74.3,43.4,29.97,North,357,5.4,5.4,33,0.00,,---,0.00,VWS V14.01,2013-08-02 17:40:00,
2013-08-02 12:45:00,74.3,42.6,29.97,North,7,3.1,5.4,32,0.00,,---,0.00,VWS V14.01,2013-08-02 17:45:00,
2013-08-02 12:50:00,74.3,42.6,29.97,North,7,3.1,3.1,32,0.00,,---,0.00,VWS V14.01,2013-08-02 17:50:00,
2013-08-02 12:55:00,74.8,43.8,29.97,North,7,3.1,3.1,33,0.00,,---,0.00,VWS V14.01,2013-08-02 17:55:00,
2013-08-02 13:00:00,75.0,43.2,29.97,North,7,3.1,3.1,32,0.00,,---,0.00,VWS V14.01,2013-08-02 18:00:00,
2013-08-02 13:06:00,75.4,43.5,29.97,North,7,3.1,3.1,32,0.00,,---,0.00,VWS V14.01,2013-08-02 18:06:00,
2013-08-02 13:11:00,74.5,43.5,29.97,North,3,3.6,3.6,33,0.00,,---,0.00,VWS V14.01,2013-08-02 18:11:00,
2013-08-02 13:16:00,74.3,43.4,29.97,North,3,3.6,3.6,33,0.00,,---,0.00,VWS V14.01,2013-08-02 18:16:00,
2013-08-02 13:21:00,74.5,43.5,29.97,North,3,3.6,3.6,33,0.00,,---,0.00,VWS V14.01,2013-08-02 18:21:00,
2013-08-02 13:26:00,74.7,42.9,29.97,North,3,3.6,3.6,32,0.00,,---,0.00,VWS V14.01,2013-08-02 18:26:00,
2013-08-02 13:32:00,74.7,42.0,29.97,ENE,60,4.9,4.9,31,0.00,,---,0.00,VWS V14.01,2013-08-02 18:32:00,
2013-08-02 13:38:00,75.7,42.1,29.97,ENE,60,4.9,4.9,30,0.00,,---,0.00,VWS V14.01,2013-08-02 18:38:00,
2013-08-02 13:43:00,76.3,43.5,29.97,ENE,60,4.9,4.9,31,0.00,,---,0.00,VWS V14.01,2013-08-02 18:43:00,
2013-08-02 13:49:00,76.5,42.8,29.97,ENE,60,4.9,4.9,30,0.00,,---,0.00,VWS V14.01,2013-08-02 18:49:00,
2013-08-02 13:55:00,76.5,42.8,29.97,NNE,18,5.8,5.8,30,0.00,,---,0.00,VWS V14.01,2013-08-02 18:55:00,
2013-08-02 14:00:00,76.5,41.9,29.97,ENE,60,5.4,5.4,29,0.00,,---,0.00,VWS V14.01,2013-08-02 19:00:00,
2013-08-02 14:05:00,76.5,41.9,29.97,ENE,60,5.4,5.4,29,0.00,,---,0.00,VWS V14.01,2013-08-02 19:05:00,
2013-08-02 14:12:00,77.5,41.0,29.97,ENE,60,5.4,5.4,27,0.00,,---,0.00,VWS V14.01,2013-08-02 19:12:00,
2013-08-02 14:17:00,78.3,41.6,29.97,North,357,3.6,7.6,27,0.00,,---,0.00,VWS V14.01,2013-08-02 19:17:00,
2013-08-02 14:23:00,78.3,41.6,29.97,NNE,16,5.4,5.4,27,0.00,,---,0.00,VWS V14.01,2013-08-02 19:23:00,
2013-08-02 14:28:00,78.4,39.7,29.97,NNW,346,5.8,5.8,25,0.00,,---,0.00,VWS V14.01,2013-08-02 19:28:00,
2013-08-02 14:33:00,78.8,40.0,29.97,North,9,8.7,8.7,25,0.00,,---,0.00,VWS V14.01,2013-08-02 19:33:00,
2013-08-02 14:39:00,78.6,39.9,29.97,NNE,24,11.0,11.0,25,0.00,,---,0.00,VWS V14.01,2013-08-02 19:39:00,
2013-08-02 14:44:00,78.8,40.0,29.97,North,1,3.1,3.1,25,0.00,,---,0.00,VWS V14.01,2013-08-02 19:44:00,
2013-08-02 14:49:00,78.8,40.0,29.97,NNW,334,5.4,5.4,25,0.00,,---,0.00,VWS V14.01,2013-08-02 19:49:00,
2013-08-02 14:54:00,78.8,43.0,29.97,NNW,334,5.4,5.4,28,0.00,,---,0.00,VWS V14.01,2013-08-02 19:54:00,
2013-08-02 14:59:00,78.4,39.7,29.97,North,0,5.4,8.7,25,0.00,,---,0.00,VWS V14.01,2013-08-02 19:59:00,
2013-08-02 15:05:00,78.4,39.7,29.97,NNE,17,7.6,7.6,25,0.00,,---,0.00,VWS V14.01,2013-08-02 20:05:00,
2013-08-02 15:10:00,77.7,41.1,29.97,NNE,15,6.7,6.7,27,0.00,,---,0.00,VWS V14.01,2013-08-02 20:10:00,
2013-08-02 15:15:00,77.7,41.1,29.97,NNE,15,6.7,6.7,27,0.00,,---,0.00,VWS V14.01,2013-08-02 20:15:00,
2013-08-02 15:20:00,77.7,40.1,29.97,NNW,342,4.9,4.9,26,0.00,,---,0.00,VWS V14.01,2013-08-02 20:20:00,
2013-08-02 15:25:00,77.7,40.1,29.97,NW,313,6.3,6.3,26,0.00,,---,0.00,VWS V14.01,2013-08-02 20:25:00,
2013-08-02 15:31:00,77.5,41.0,29.97,North,353,8.7,8.7,27,0.00,,---,0.00,VWS V14.01,2013-08-02 20:31:00,
2013-08-02 15:36:00,76.6,41.1,29.97,North,353,8.7,8.7,28,0.00,,---,0.00,VWS V14.01,2013-08-02 20:36:00,
2013-08-02 15:41:00,76.8,41.3,29.97,North,0,5.4,8.7,28,0.00,,---,0.00,VWS V14.01,2013-08-02 20:41:00,
2013-08-02 15:46:00,77.4,39.8,29.97,North,0,5.4,5.4,26,0.00,,---,0.00,VWS V14.01,2013-08-02 20:46:00,
2013-08-02 15:51:00,77.9,40.3,29.97,North,0,5.4,5.4,26,0.00,,---,0.00,VWS V14.01,2013-08-02 20:51:00,
2013-08-02 15:57:00,78.1,41.4,29.97,North,0,5.4,5.4,27,0.00,,---,0.00,VWS V14.01,2013-08-02 20:57:00,
2013-08-02 16:02:00,78.1,42.4,29.97,North,0,5.4,5.4,28,0.00,,---,0.00,VWS V14.01,2013-08-02 21:02:00,
2013-08-02 16:07:00,78.3,42.5,29.97,North,353,7.6,7.6,28,0.00,,---,0.00,VWS V14.01,2013-08-02 21:07:00,
2013-08-02 16:13:00,78.1,40.4,29.97,North,353,7.6,7.6,26,0.00,,---,0.00,VWS V14.01,2013-08-02 21:13:00,
2013-08-02 16:18:00,77.5,40.0,29.97,North,353,7.6,7.6,26,0.00,,---,0.00,VWS V14.01,2013-08-02 21:18:00,
2013-08-02 16:24:00,77.2,39.7,29.97,North,353,7.6,7.6,26,0.00,,---,0.00,VWS V14.01,2013-08-02 21:24:00,
2013-08-02 16:29:00,77.0,41.4,29.97,North,353,7.6,7.6,28,0.00,,---,0.00,VWS V14.01,2013-08-02 21:29:00,
2013-08-02 16:34:00,77.7,39.1,29.97,North,353,7.6,7.6,25,0.00,,---,0.00,VWS V14.01,2013-08-02 21:34:00,
2013-08-02 16:40:00,78.3,39.6,29.97,North,353,7.6,7.6,25,0.00,,---,0.00,VWS V14.01,2013-08-02 21:40:00,
2013-08-02 16:45:00,78.1,39.4,29.97,North,353,7.6,7.6,25,0.00,,---,0.00,VWS V14.01,2013-08-02 21:45:00,
2013-08-02 16:51:00,77.7,40.1,29.97,North,353,7.6,7.6,26,0.00,,---,0.00,VWS V14.01,2013-08-02 21:51:00,
2013-08-02 16:57:00,77.5,40.0,29.97,NNW,344,8.1,8.1,26,0.00,,---,0.00,VWS V14.01,2013-08-02 21:57:00,
2013-08-02 17:02:00,77.4,38.8,29.97,NNW,331,5.8,5.8,25,0.00,,---,0.00,VWS V14.01,2013-08-02 22:02:00,
2013-08-02 17:08:00,77.0,38.5,29.97,NNW,337,8.1,8.1,25,0.00,,---,0.00,VWS V14.01,2013-08-02 22:08:00,
2013-08-02 17:13:00,77.2,39.7,29.97,NNW,337,8.1,8.1,26,0.00,,---,0.00,VWS V14.01,2013-08-02 22:13:00,
2013-08-02 17:19:00,77.2,39.7,29.97,NNW,337,8.1,8.1,26,0.00,,---,0.00,VWS V14.01,2013-08-02 22:19:00,
2013-08-02 17:25:00,76.8,40.3,29.97,NNW,337,8.1,8.1,27,0.00,,---,0.00,VWS V14.01,2013-08-02 22:25:00,
2013-08-02 17:30:00,76.8,40.3,29.97,NNW,337,8.1,8.1,27,0.00,,---,0.00,VWS V14.01,2013-08-02 22:30:00,
2013-08-02 17:35:00,76.6,40.2,29.97,NNW,337,8.1,8.1,27,0.00,,---,0.00,VWS V14.01,2013-08-02 22:35:00,
2013-08-02 17:42:00,75.7,39.4,29.97,NW,321,2.2,2.2,27,0.00,,---,0.00,VWS V14.01,2013-08-02 22:42:00,
2013-08-02 17:47:00,75.6,39.3,29.97,NW,321,2.2,2.2,27,0.00,,---,0.00,VWS V14.01,2013-08-02 22:47:00,
2013-08-02 17:53:00,76.6,40.2,29.97,NW,321,2.2,2.2,27,0.00,,---,0.00,VWS V14.01,2013-08-02 22:53:00,
2013-08-02 17:58:00,77.2,41.6,30.00,NW,321,2.2,2.2,28,0.00,,---,0.00,VWS V14.01,2013-08-02 22:58:00,
2013-08-02 18:03:00,76.6,40.2,30.00,NW,321,2.2,2.2,27,0.00,,---,0.00,VWS V14.01,2013-08-02 23:03:00,
2013-08-02 18:09:00,76.5,41.0,30.00,NNW,335,7.6,7.6,28,0.00,,---,0.00,VWS V14.01,2013-08-02 23:09:00,
2013-08-02 18:15:00,76.1,39.7,30.00,NNW,338,8.1,8.1,27,0.00,,---,0.00,VWS V14.01,2013-08-02 23:15:00,
2013-08-02 18:20:00,75.9,41.4,30.00,NNW,333,7.6,7.6,29,0.00,,---,0.00,VWS V14.01,2013-08-02 23:20:00,
2013-08-02 18:25:00,75.7,40.3,30.00,NNW,333,7.6,7.6,28,0.00,,---,0.00,VWS V14.01,2013-08-02 23:25:00,
2013-08-02 18:31:00,75.2,39.9,30.00,North,3,5.8,5.8,28,0.00,,---,0.00,VWS V14.01,2013-08-02 23:31:00,
2013-08-02 18:35:00,75.2,39.9,30.00,North,3,5.8,5.8,28,0.00,,---,0.00,VWS V14.01,2013-08-02 23:35:00,
2013-08-02 18:41:00,75.6,40.2,30.00,North,3,5.8,5.8,28,0.00,,---,0.00,VWS V14.01,2013-08-02 23:41:00,
2013-08-02 18:46:00,75.7,40.3,30.00,North,3,5.8,5.8,28,0.00,,---,0.00,VWS V14.01,2013-08-02 23:46:00,
2013-08-02 18:51:00,75.2,39.0,30.00,NW,320,6.7,6.7,27,0.00,,---,0.00,VWS V14.01,2013-08-02 23:51:00,
2013-08-02 18:56:00,75.0,39.7,30.00,NNW,332,7.6,7.6,28,0.00,,---,0.00,VWS V14.01,2013-08-02 23:56:00,
2013-08-02 19:02:00,74.8,39.6,30.00,NNW,332,7.6,7.6,28,0.00,,---,0.00,VWS V14.01,2013-08-03 00:02:00,
2013-08-02 19:07:00,74.5,39.3,30.00,NNW,335,5.4,5.4,28,0.00,,---,0.00,VWS V14.01,2013-08-03 00:07:00,
2013-08-02 19:12:00,74.1,39.0,30.00,NNW,330,6.3,6.3,28,0.00,,---,0.00,VWS V14.01,2013-08-03 00:12:00,
2013-08-02 19:18:00,73.2,40.0,30.00,NNW,330,6.3,6.3,30,0.00,,---,0.00,VWS V14.01,2013-08-03 00:18:00,
2013-08-02 19:23:00,72.7,41.2,30.00,NNW,330,6.3,6.3,32,0.00,,---,0.00,VWS V14.01,2013-08-03 00:23:00,
2013-08-02 19:29:00,72.0,40.5,30.00,NNW,330,6.3,6.3,32,0.00,,---,0.00,VWS V14.01,2013-08-03 00:29:00,
2013-08-02 19:34:00,71.2,40.7,30.00,NNW,330,6.3,6.3,33,0.00,,---,0.00,VWS V14.01,2013-08-03 00:34:00,
2013-08-02 19:40:00,70.7,41.0,30.00,NNW,330,6.3,6.3,34,0.00,,---,0.00,VWS V14.01,2013-08-03 00:40:00,
2013-08-02 19:45:00,70.2,40.5,30.00,NNW,330,6.3,6.3,34,0.00,,---,0.00,VWS V14.01,2013-08-03 00:45:00,
2013-08-02 19:51:00,69.8,40.2,30.00,NNW,330,6.3,6.3,34,0.00,,---,0.00,VWS V14.01,2013-08-03 00:51:00,
2013-08-02 19:56:00,69.4,40.6,30.00,NNW,330,6.3,6.3,35,0.00,,---,0.00,VWS V14.01,2013-08-03 00:56:00,
2013-08-02 20:02:00,68.9,40.9,30.00,NNW,330,6.3,6.3,36,0.00,,---,0.00,VWS V14.01,2013-08-03 01:02:00,
2013-08-02 20:08:00,68.4,40.4,30.00,NNW,330,6.3,6.3,36,0.00,,---,0.00,VWS V14.01,2013-08-03 01:08:00,
2013-08-02 20:14:00,68.0,40.8,30.00,NNW,330,6.3,6.3,37,0.00,,---,0.00,VWS V14.01,2013-08-03 01:14:00,
2013-08-02 20:19:00,67.6,41.2,30.00,NNW,330,6.3,6.3,38,0.00,,---,0.00,VWS V14.01,2013-08-03 01:19:00,
2013-08-02 20:24:00,66.9,41.8,30.00,NNW,330,6.3,6.3,40,0.00,,---,0.00,VWS V14.01,2013-08-03 01:24:00,
2013-08-02 20:30:00,66.2,42.5,30.00,NNW,330,6.3,6.3,42,0.00,,---,0.00,VWS V14.01,2013-08-03 01:30:00,
2013-08-02 20:35:00,65.5,42.4,30.00,NNW,330,6.3,6.3,43,0.00,,---,0.00,VWS V14.01,2013-08-03 01:35:00,
2013-08-02 20:41:00,64.6,42.2,30.00,NNW,330,6.3,6.3,44,0.00,,---,0.00,VWS V14.01,2013-08-03 01:41:00,
2013-08-02 20:46:00,64.0,42.3,30.00,NNW,330,6.3,6.3,45,0.00,,---,0.00,VWS V14.01,2013-08-03 01:46:00,
2013-08-02 20:51:00,63.3,41.6,30.00,NNW,327,0.0,6.3,45,0.00,,---,0.00,VWS V14.01,2013-08-03 01:51:00,
2013-08-02 20:56:00,63.0,41.3,30.03,NNW,327,0.0,0.0,45,0.00,,---,0.00,VWS V14.01,2013-08-03 01:56:00,
2013-08-02 21:01:00,62.6,41.5,30.03,NNW,327,0.0,0.0,46,0.00,,---,0.00,VWS V14.01,2013-08-03 02:01:00,
2013-08-02 21:06:00,62.2,42.3,30.03,NNW,327,0.0,0.0,48,0.00,,---,0.00,VWS V14.01,2013-08-03 02:06:00,
2013-08-02 21:11:00,61.7,41.8,30.03,NNW,327,0.0,0.0,48,0.00,,---,0.00,VWS V14.01,2013-08-03 02:11:00,
2013-08-02 21:17:00,61.3,41.5,30.03,NNW,327,0.0,0.0,48,0.00,,---,0.00,VWS V14.01,2013-08-03 02:17:00,
2013-08-02 21:22:00,61.0,42.2,30.03,NNW,327,0.0,0.0,50,0.00,,---,0.00,VWS V14.01,2013-08-03 02:22:00,
2013-08-02 21:27:00,60.6,42.4,30.03,NNW,327,0.0,0.0,51,0.00,,---,0.00,VWS V14.01,2013-08-03 02:27:00,
2013-08-02 21:32:00,60.4,42.2,30.03,NNW,327,0.0,0.0,51,0.00,,---,0.00,VWS V14.01,2013-08-03 02:32:00,
2013-08-02 21:38:00,60.3,42.6,30.03,NNW,327,0.0,0.0,52,0.00,,---,0.00,VWS V14.01,2013-08-03 02:38:00,
2013-08-02 21:42:00,60.1,42.9,30.03,NNW,327,0.0,0.0,53,0.00,,---,0.00,VWS V14.01,2013-08-03 02:42:00,
2013-08-02 21:48:00,60.1,43.4,30.03,NNW,327,0.0,0.0,54,0.00,,---,0.00,VWS V14.01,2013-08-03 02:48:00,
2013-08-02 21:53:00,59.5,43.4,30.03,NNW,327,0.0,0.0,55,0.00,,---,0.00,VWS V14.01,2013-08-03 02:53:00,
2013-08-02 21:58:00,59.4,43.7,30.03,NNW,327,0.0,0.0,56,0.00,,---,0.00,VWS V14.01,2013-08-03 02:58:00,
2013-08-02 22:03:00,58.8,43.6,30.03,NNW,327,0.0,0.0,57,0.00,,---,0.00,VWS V14.01,2013-08-03 03:03:00,
2013-08-02 22:09:00,58.5,43.8,30.06,NNW,327,0.0,0.0,58,0.00,,---,0.00,VWS V14.01,2013-08-03 03:09:00,
2013-08-02 22:15:00,58.1,44.3,30.06,NNW,327,0.0,0.0,60,0.00,,---,0.00,VWS V14.01,2013-08-03 03:15:00,
2013-08-02 22:20:00,57.7,44.4,30.06,NNW,327,0.0,0.0,61,0.00,,---,0.00,VWS V14.01,2013-08-03 03:20:00,
2013-08-02 22:26:00,57.4,44.5,30.06,NNW,327,0.0,0.0,62,0.00,,---,0.00,VWS V14.01,2013-08-03 03:26:00,
2013-08-02 22:31:00,57.2,44.7,30.06,NNW,327,0.0,0.0,63,0.00,,---,0.00,VWS V14.01,2013-08-03 03:31:00,
2013-08-02 22:37:00,57.0,45.4,30.06,NNW,327,0.0,0.0,65,0.00,,---,0.00,VWS V14.01,2013-08-03 03:37:00,
2013-08-02 22:43:00,56.8,45.2,30.06,NNW,327,0.0,0.0,65,0.00,,---,0.00,VWS V14.01,2013-08-03 03:43:00,
2013-08-02 22:48:00,56.8,46.0,30.06,NNW,327,0.0,0.0,67,0.00,,---,0.00,VWS V14.01,2013-08-03 03:48:00,
2013-08-02 22:53:00,56.7,45.8,30.06,NNW,327,0.0,0.0,67,0.00,,---,0.00,VWS V14.01,2013-08-03 03:53:00,
2013-08-02 22:58:00,56.7,45.8,30.06,NNW,327,0.0,0.0,67,0.00,,---,0.00,VWS V14.01,2013-08-03 03:58:00,
2013-08-02 23:01:00,56.7,45.8,30.06,NNW,327,0.0,0.0,67,0.00,,---,0.00,VWS V14.01,2013-08-03 04:01:00,
2013-08-02 23:02:00,56.7,45.8,30.06,NNW,327,0.0,0.0,67,0.00,,---,0.00,VWS V14.01,2013-08-03 04:02:00,
2013-08-02 23:03:00,56.7,45.8,30.06,NNW,327,0.0,0.0,67,0.00,,---,0.00,VWS V14.01,2013-08-03 04:03:00,
2013-08-02 23:05:00,56.7,45.8,30.06,NNW,327,0.0,0.0,67,0.00,,---,0.00,VWS V14.01,2013-08-03 04:05:00,
2013-08-02 23:10:00,56.8,46.4,30.06,NNW,327,0.0,0.0,68,0.00,,---,0.00,VWS V14.01,2013-08-03 04:10:00,
2013-08-02 23:12:00,56.8,46.4,30.06,NNW,327,0.0,0.0,68,0.00,,---,0.00,VWS V14.01,2013-08-03 04:12:00,
2013-08-02 23:18:00,57.0,46.6,30.06,NNW,327,0.0,0.0,68,0.00,,---,0.00,VWS V14.01,2013-08-03 04:18:00,
2013-08-02 23:23:00,57.0,46.6,30.06,NNW,327,0.0,0.0,68,0.00,,---,0.00,VWS V14.01,2013-08-03 04:23:00,
2013-08-02 23:28:00,56.8,46.4,30.06,NNW,327,0.0,0.0,68,0.00,,---,0.00,VWS V14.01,2013-08-03 04:28:00,
2013-08-02 23:33:00,56.7,46.2,30.06,NNW,327,0.0,0.0,68,0.00,,---,0.00,VWS V14.01,2013-08-03 04:33:00,
2013-08-02 23:39:00,56.5,46.1,30.06,NNW,327,0.0,0.0,68,0.00,,---,0.00,VWS V14.01,2013-08-03 04:39:00,
2013-08-02 23:44:00,56.3,45.9,30.06,NNW,327,0.0,0.0,68,0.00,,---,0.00,VWS V14.01,2013-08-03 04:44:00,
2013-08-02 23:49:00,56.3,46.3,30.06,NNW,327,0.0,0.0,69,0.00,,---,0.00,VWS V14.01,2013-08-03 04:49:00,
2013-08-02 23:54:00,56.1,46.1,30.06,NNW,327,0.0,0.0,69,0.00,,---,0.00,VWS V14.01,2013-08-03 04:54:00,